Time;durP1;ratioP1;P1;durP2;ratioP2;P2;SDS_P1;SDS_P2;PMS_P1;PMS_P2;Temp;Humidity;BMP_temperature;BMP_pressure;BME280_temperature;BME280_humidity;BME280_pressure;Samples;Min_cycle;Max_cycle;Signal;HPM_P1;HPM_P2
2022/09/28 00:01:23;;;;;;;10.88;8.48;;;;;;;7.24;100.00;99552.25;5034121;28;20057;-81
2022/09/28 00:03:57;;;;;;;10.65;8.10;;;;;;;7.18;100.00;99552.78;5024459;28;20477;-80
2022/09/28 00:06:34;;;;;;;9.98;7.78;;;;;;;7.20;100.00;99558.75;5019817;28;20030;-80
2022/09/28 00:09:03;;;;;;;11.73;8.20;;;;;;;7.15;100.00;99550.38;5021509;28;20032;-81
2022/09/28 00:11:36;;;;;;;12.30;8.97;;;;;;;7.20;100.00;99562.22;5035927;28;20026;-80
2022/09/28 00:14:06;;;;;;;10.40;8.85;;;;;;;7.18;100.00;99558.88;5026332;28;20036;-81
2022/09/28 00:16:38;;;;;;;9.80;8.60;;;;;;;7.21;100.00;99558.63;5026559;28;20030;-81
2022/09/28 00:19:05;;;;;;;11.68;8.55;;;;;;;7.20;100.00;99550.84;5007867;28;20037;-81
2022/09/28 00:21:33;;;;;;;10.48;8.80;;;;;;;7.16;100.00;99536.19;5029137;28;20029;-80
2022/09/28 00:24:17;;;;;;;10.65;9.00;;;;;;;7.21;100.00;99547.22;5035357;28;20037;-81
2022/09/28 00:26:49;;;;;;;14.43;9.25;;;;;;;7.25;100.00;99545.19;5023752;28;20069;-81
2022/09/28 00:29:20;;;;;;;11.68;9.50;;;;;;;7.25;100.00;99546.00;5025175;28;20032;-81
2022/09/28 00:31:48;;;;;;;10.80;8.98;;;;;;;7.23;100.00;99545.31;5024103;28;20037;-80
2022/09/28 00:34:14;;;;;;;10.55;9.50;;;;;;;7.26;100.00;99538.91;5022110;28;20052;-80
2022/09/28 00:36:51;;;;;;;11.52;8.75;;;;;;;7.25;100.00;99540.72;5025604;28;20040;-81
2022/09/28 00:39:20;;;;;;;10.45;8.73;;;;;;;7.26;100.00;99525.72;5028888;28;20069;-81
2022/09/28 00:41:55;;;;;;;10.55;9.23;;;;;;;7.28;100.00;99532.56;5024802;28;20026;-82
2022/09/28 00:44:50;;;;;;;13.50;9.00;;;;;;;7.26;100.00;99526.56;5027196;28;20026;-81
2022/09/28 00:47:36;;;;;;;11.40;9.35;;;;;;;7.29;100.00;99526.28;5012077;28;20060;-80
2022/09/28 00:53:03;;;;;;;10.48;8.38;;;;;;;7.25;100.00;99527.53;4555171;22;20082;-57
2022/09/28 00:55:50;;;;;;;11.40;9.40;;;;;;;7.30;100.00;99517.41;5057970;28;20051;-56
2022/09/28 00:58:24;;;;;;;9.82;8.48;;;;;;;7.27;100.00;99524.75;5070008;28;20033;-57
2022/09/28 01:00:49;;;;;;;15.07;9.40;;;;;;;7.26;100.00;99513.38;5058067;28;20029;-55
2022/09/28 01:03:15;;;;;;;13.30;9.27;;;;;;;7.24;100.00;99510.00;5082129;28;20028;-57
2022/09/28 01:05:42;;;;;;;13.02;9.77;;;;;;;7.26;100.00;99513.38;5083150;28;20040;-56
2022/09/28 01:08:08;;;;;;;13.70;9.95;;;;;;;7.26;100.00;99516.00;5073506;28;20027;-56
2022/09/28 01:10:34;;;;;;;12.40;10.32;;;;;;;7.26;100.00;99509.88;5060767;28;20043;-56
2022/09/28 01:12:59;;;;;;;11.95;9.95;;;;;;;7.27;100.00;99514.19;5068319;28;20403;-57
2022/09/28 01:15:27;;;;;;;13.85;10.55;;;;;;;7.27;100.00;99522.13;5070008;28;20374;-56
2022/09/28 01:18:19;;;;;;;16.33;10.50;;;;;;;7.32;100.00;99514.66;5070687;28;20040;-56
2022/09/28 01:21:14;;;;;;;13.88;10.32;;;;;;;7.29;100.00;99522.81;5067047;28;20040;-56
2022/09/28 01:24:24;;;;;;;11.70;10.20;;;;;;;7.33;100.00;99517.16;5059198;28;20048;-57
2022/09/28 01:26:55;;;;;;;11.48;9.80;;;;;;;7.33;100.00;99521.59;5055080;28;20037;-57
2022/09/28 01:29:42;;;;;;;13.43;11.48;;;;;;;7.34;100.00;99524.09;5070848;28;20028;-55
2022/09/28 01:32:37;;;;;;;12.18;10.93;;;;;;;7.36;100.00;99524.81;5060358;28;20029;-56
2022/09/28 01:35:13;;;;;;;14.13;12.10;;;;;;;7.34;100.00;99520.63;5040925;28;20040;-56
2022/09/28 01:37:54;;;;;;;14.80;12.07;;;;;;;7.36;100.00;99526.59;5071475;28;20111;-56
2022/09/28 01:40:22;;;;;;;14.60;12.70;;;;;;;7.37;100.00;99523.00;5060097;28;20132;-56
2022/09/28 01:42:53;;;;;;;17.90;12.48;;;;;;;7.37;100.00;99528.28;5071278;28;20438;-57
2022/09/28 01:45:24;;;;;;;16.85;13.02;;;;;;;7.37;100.00;99533.56;5071420;28;20028;-57
2022/09/28 01:47:52;;;;;;;18.30;13.45;;;;;;;7.38;100.00;99529.97;5071438;28;20044;-57
2022/09/28 01:50:24;;;;;;;20.48;14.05;;;;;;;7.37;100.00;99531.75;5071326;28;20098;-57
2022/09/28 01:53:15;;;;;;;15.15;13.63;;;;;;;7.41;100.00;99538.47;5070022;28;20098;-56
2022/09/28 01:55:49;;;;;;;18.63;15.48;;;;;;;7.40;100.00;99530.69;5069606;28;20229;-55
2022/09/28 01:58:23;;;;;;;19.70;15.68;;;;;;;7.40;100.00;99530.69;5070626;28;20034;-55
2022/09/28 02:00:54;;;;;;;18.52;15.73;;;;;;;7.43;100.00;99526.94;5059995;28;20027;-56
2022/09/28 02:03:24;;;;;;;18.23;15.35;;;;;;;7.42;100.00;99526.09;5070443;28;20055;-55
2022/09/28 02:05:56;;;;;;;21.60;15.63;;;;;;;7.41;100.00;99525.28;5070193;28;20024;-57
2022/09/28 02:08:43;;;;;;;17.77;14.15;;;;;;;7.44;100.00;99521.53;5066743;28;20036;-56
2022/09/28 02:11:20;;;;;;;21.67;13.90;;;;;;;7.44;100.00;99526.81;5063295;28;20032;-57
2022/09/28 02:13:51;;;;;;;16.35;12.80;;;;;;;7.41;100.00;99522.63;5057882;28;20020;-56
2022/09/28 02:16:39;;;;;;;15.95;12.98;;;;;;;7.46;100.00;99527.53;5070197;28;20038;-55
2022/09/28 02:19:07;;;;;;;14.55;11.98;;;;;;;7.44;100.00;99520.69;5068877;28;20027;-56
2022/09/28 02:21:45;;;;;;;14.23;11.75;;;;;;;7.44;100.00;99524.16;5070025;28;20039;-56
2022/09/28 02:24:26;;;;;;;17.00;11.13;;;;;;;7.44;100.00;99524.16;5068906;28;20032;-57
2022/09/28 02:26:55;;;;;;;12.90;9.95;;;;;;;7.40;100.00;99528.88;5069864;28;20490;-57
2022/09/28 02:29:22;;;;;;;12.75;10.00;;;;;;;7.37;100.00;99523.84;5069008;28;20078;-56
2022/09/28 02:31:49;;;;;;;11.32;9.45;;;;;;;7.35;100.00;99523.13;5069838;28;20115;-56
2022/09/28 02:34:14;;;;;;;11.75;9.48;;;;;;;7.32;100.00;99522.56;5069970;28;20032;-56
2022/09/28 02:36:39;;;;;;;15.50;9.35;;;;;;;7.29;100.00;99522.81;5069271;28;20078;-56
2022/09/28 02:39:12;;;;;;;10.48;8.15;;;;;;;7.27;100.00;99519.47;5060523;28;20036;-56
2022/09/28 02:42:10;;;;;;;10.75;8.50;;;;;;;7.27;100.00;99515.03;5069552;28;20378;-56
2022/09/28 02:44:42;;;;;;;11.40;8.38;;;;;;;7.21;100.00;99516.38;5065544;28;20029;-56
2022/09/28 02:47:32;;;;;;;11.93;8.48;;;;;;;7.22;100.00;99519.84;5069978;28;20028;-55
2022/09/28 02:50:25;;;;;;;10.02;7.75;;;;;;;7.19;100.00;99523.59;5069646;28;20032;-56
2022/09/28 02:52:59;;;;;;;10.00;7.30;;;;;;;7.16;100.00;99526.50;5066918;28;20498;-56
2022/09/28 02:55:33;;;;;;;11.40;7.80;;;;;;;7.15;100.00;99523.97;5058156;28;20025;-56
2022/09/28 02:58:33;;;;;;;10.68;7.97;;;;;;;7.12;100.00;99527.72;5070100;28;20477;-56
2022/09/28 03:01:15;;;;;;;11.98;7.82;;;;;;;7.09;100.00;99532.41;5064165;28;20074;-56
2022/09/28 03:03:51;;;;;;;11.38;7.32;;;;;;;7.10;100.00;99531.47;5060634;28;20029;-56
2022/09/28 03:06:43;;;;;;;8.48;7.25;;;;;;;7.09;100.00;99537.69;5069644;28;20111;-56
2022/09/28 03:09:20;;;;;;;10.10;7.30;;;;;;;7.03;100.00;99534.59;5069723;28;20073;-56
2022/09/28 03:11:50;;;;;;;9.98;7.50;;;;;;;7.04;100.00;99532.78;5069666;28;20024;-56
2022/09/28 03:14:16;;;;;;;10.10;6.75;;;;;;;7.03;100.00;99528.50;5061531;28;20048;-56
2022/09/28 03:16:43;;;;;;;7.75;6.78;;;;;;;7.01;100.00;99528.63;5070011;28;20021;-56
2022/09/28 03:19:11;;;;;;;10.07;6.72;;;;;;;7.01;100.00;99531.25;5064874;28;20083;-57
2022/09/28 03:21:36;;;;;;;9.20;6.40;;;;;;;7.04;100.00;99535.41;5069753;28;20032;-56
2022/09/28 03:24:03;;;;;;;7.88;6.57;;;;;;;7.04;100.00;99527.50;5068386;28;20029;-55
2022/09/28 03:26:28;;;;;;;8.65;5.93;;;;;;;7.03;100.00;99531.97;5063743;28;20016;-56
2022/09/28 03:28:53;;;;;;;12.32;6.25;;;;;;;7.03;100.00;99533.78;5069119;28;20033;-55
2022/09/28 03:31:19;;;;;;;6.90;6.20;;;;;;;7.02;100.00;99530.28;5069094;28;20099;-57
2022/09/28 03:33:44;;;;;;;6.90;6.20;;;;;;;7.03;100.00;99531.13;5061778;28;20024;-56
2022/09/28 03:36:09;;;;;;;9.85;5.68;;;;;;;7.02;100.00;99529.44;5069260;28;20032;-55
2022/09/28 03:38:35;;;;;;;6.20;5.43;;;;;;;7.02;100.00;99532.09;5069317;28;20440;-55
2022/09/28 03:41:00;;;;;;;9.02;5.65;;;;;;;7.01;100.00;99533.03;5063150;28;20049;-56
2022/09/28 03:43:26;;;;;;;7.68;5.70;;;;;;;6.99;100.00;99541.06;5069270;28;20025;-56
2022/09/28 03:45:57;;;;;;;5.72;5.00;;;;;;;6.98;100.00;99538.59;5069353;28;20032;-57
2022/09/28 03:48:30;;;;;;;6.72;5.25;;;;;;;6.99;100.00;99542.88;5071564;28;20024;-56
2022/09/28 03:50:58;;;;;;;5.93;5.32;;;;;;;6.97;100.00;99529.81;5061033;28;20041;-56
2022/09/28 03:53:24;;;;;;;5.90;4.82;;;;;;;6.99;100.00;99550.81;5072189;28;20072;-56
2022/09/28 03:55:52;;;;;;;5.82;5.32;;;;;;;6.99;100.00;99550.81;5071730;28;20052;-56
2022/09/28 03:58:18;;;;;;;7.85;5.30;;;;;;;6.98;100.00;99544.69;5072813;28;20032;-56
2022/09/28 04:00:43;;;;;;;8.40;4.90;;;;;;;6.97;100.00;99544.81;5072076;28;20033;-55
2022/09/28 04:03:08;;;;;;;8.07;4.80;;;;;;;6.96;100.00;99543.13;5072641;28;20033;-56
2022/09/28 04:05:34;;;;;;;7.03;4.75;;;;;;;6.96;100.00;99543.13;5061207;28;20040;-57
2022/09/28 04:07:59;;;;;;;6.40;4.07;;;;;;;6.96;100.00;99540.50;5072493;28;20086;-56
2022/09/28 04:10:25;;;;;;;8.27;4.53;;;;;;;6.97;100.00;99544.81;5072069;28;20106;-56
2022/09/28 04:12:55;;;;;;;5.43;3.88;;;;;;;6.96;100.00;99545.78;5071950;28;20024;-56
2022/09/28 04:15:20;;;;;;;4.78;4.00;;;;;;;6.94;100.00;99551.19;5072180;28;20043;-56
2022/09/28 04:17:47;;;;;;;3.97;3.67;;;;;;;6.97;100.00;99547.47;5062729;28;20401;-56
2022/09/28 04:20:12;;;;;;;6.20;3.50;;;;;;;6.96;100.00;99538.72;5071835;28;20435;-56
2022/09/28 04:22:38;;;;;;;4.05;3.50;;;;;;;6.96;100.00;99548.41;5072402;28;20059;-57
2022/09/28 04:25:04;;;;;;;4.53;3.35;;;;;;;6.96;100.00;99545.78;5068495;28;20033;-57
2022/09/28 04:30:14;;;;;;;5.55;3.10;;;;;;;6.98;100.00;99544.69;5072037;28;20044;-56
2022/09/28 04:32:39;;;;;;;4.72;3.05;;;;;;;6.99;100.00;99534.97;5072276;28;20020;-56
2022/09/28 04:35:05;;;;;;;3.97;2.78;;;;;;;7.00;100.00;99536.66;5071709;28;20034;-57
2022/09/28 04:37:31;;;;;;;5.75;2.78;;;;;;;6.97;100.00;99527.19;5064262;28;20032;-56
2022/09/28 04:39:56;;;;;;;5.35;2.80;;;;;;;6.98;100.00;99531.50;5070687;28;20054;-57
2022/09/28 04:42:21;;;;;;;5.32;2.70;;;;;;;6.99;100.00;99527.06;5072319;28;20086;-55
2022/09/28 04:44:46;;;;;;;2.65;2.45;;;;;;;6.97;100.00;99529.00;5071295;28;20048;-55
2022/09/28 04:47:12;;;;;;;4.07;2.45;;;;;;;6.97;100.00;99531.63;5064405;28;20060;-57
2022/09/28 04:49:37;;;;;;;3.40;2.42;;;;;;;6.98;100.00;99530.66;5071493;28;20371;-57
2022/09/28 04:52:04;;;;;;;3.40;2.60;;;;;;;6.95;100.00;99537.03;5069880;28;20044;-56
2022/09/28 04:54:29;;;;;;;3.17;2.88;;;;;;;6.96;100.00;99543.13;5070894;28;20316;-56
2022/09/28 04:56:54;;;;;;;3.83;2.40;;;;;;;6.93;100.00;99536.31;5071624;28;20358;-56
2022/09/28 04:59:20;;;;;;;6.57;2.40;;;;;;;6.89;100.00;99534.88;5071037;28;20423;-56
2022/09/28 05:01:46;;;;;;;3.28;2.42;;;;;;;6.88;100.00;99550.84;5063746;28;20116;-56
2022/09/28 05:04:12;;;;;;;4.85;2.28;;;;;;;6.87;100.00;99550.00;5069348;28;20070;-56
2022/09/28 05:06:37;;;;;;;5.13;2.38;;;;;;;6.84;100.00;99555.53;5071130;28;20029;-56
2022/09/28 05:09:02;;;;;;;5.22;2.67;;;;;;;6.81;100.00;99553.16;5071002;28;20028;-56
2022/09/28 05:11:28;;;;;;;5.22;2.42;;;;;;;6.81;100.00;99550.50;5071136;28;20036;-56
2022/09/28 05:13:53;;;;;;;2.50;2.30;;;;;;;6.80;100.00;99557.59;5067592;28;20035;-56
2022/09/28 05:16:19;;;;;;;3.75;2.20;;;;;;;6.78;100.00;99556.91;5071032;28;20027;-57
2022/09/28 05:18:44;;;;;;;3.50;2.60;;;;;;;6.78;100.00;99556.91;5070105;28;20040;-57
2022/09/28 05:21:11;;;;;;;5.03;2.70;;;;;;;6.74;100.00;99558.09;5070517;28;20017;-56
2022/09/28 05:23:37;;;;;;;3.05;2.50;;;;;;;6.75;100.00;99557.13;5070874;28;20482;-56
2022/09/28 05:26:03;;;;;;;3.10;2.70;;;;;;;6.73;100.00;99558.22;5067541;28;20021;-56
2022/09/28 05:28:30;;;;;;;6.85;2.17;;;;;;;6.71;100.00;99568.91;5068676;28;20060;-56
2022/09/28 05:31:00;;;;;;;4.55;2.80;;;;;;;6.72;100.00;99561.84;5070302;28;20055;-57
2022/09/28 05:33:26;;;;;;;2.83;2.58;;;;;;;6.71;100.00;99558.38;5070732;28;20429;-56
2022/09/28 05:35:51;;;;;;;4.93;2.97;;;;;;;6.71;100.00;99552.22;5065562;28;20155;-55
2022/09/28 05:38:17;;;;;;;5.68;3.45;;;;;;;6.69;100.00;99552.34;5070589;28;20028;-56
2022/09/28 05:40:42;;;;;;;6.07;3.42;;;;;;;6.68;100.00;99558.59;5071071;28;20035;-55
2022/09/28 05:43:07;;;;;;;5.10;3.95;;;;;;;6.67;100.00;99547.19;5069584;28;20103;-56
2022/09/28 05:45:32;;;;;;;5.43;4.22;;;;;;;6.66;100.00;99550.81;5070502;28;20036;-56
2022/09/28 05:47:58;;;;;;;6.25;4.07;;;;;;;6.64;100.00;99550.09;5070230;28;20173;-55
2022/09/28 05:50:23;;;;;;;9.35;5.25;;;;;;;6.65;100.00;99549.13;5068482;28;20500;-55
2022/09/28 05:52:58;;;;;;;5.28;4.38;;;;;;;6.64;100.00;99555.38;5070034;28;20036;-56
2022/09/28 05:55:23;;;;;;;8.77;5.30;;;;;;;6.63;100.00;99563.41;5070503;28;20028;-56
2022/09/28 05:57:49;;;;;;;10.98;5.32;;;;;;;6.64;100.00;99565.94;5068228;28;20036;-55
2022/09/28 06:00:14;;;;;;;6.15;4.95;;;;;;;6.64;100.00;99563.31;5066441;28;20040;-56
2022/09/28 06:02:39;;;;;;;6.43;5.30;;;;;;;6.65;100.00;99570.22;5071010;28;20031;-57
2022/09/28 06:05:05;;;;;;;11.55;5.75;;;;;;;6.64;100.00;99563.31;5065936;28;20033;-54
2022/09/28 06:07:30;;;;;;;10.95;5.90;;;;;;;6.63;100.00;99561.63;5061330;28;20441;-55
2022/09/28 06:09:55;;;;;;;11.73;6.18;;;;;;;6.65;100.00;99570.22;5066729;28;20074;-56
2022/09/28 06:12:21;;;;;;;9.43;6.20;;;;;;;6.67;100.00;99570.94;5067777;28;20039;-55
2022/09/28 06:14:47;;;;;;;8.52;6.28;;;;;;;6.64;100.00;99580.91;5068452;28;20033;-55
2022/09/28 06:17:12;;;;;;;10.50;5.88;;;;;;;6.63;100.00;99579.25;5068260;28;20040;-55
2022/09/28 06:19:38;;;;;;;8.52;6.30;;;;;;;6.63;100.00;99585.34;5066072;28;20029;-55
2022/09/28 06:22:03;;;;;;;7.22;6.53;;;;;;;6.62;100.00;99582.84;5066006;28;20075;-56
2022/09/28 06:24:28;;;;;;;7.20;6.43;;;;;;;6.61;100.00;99581.16;5065000;28;20044;-55
2022/09/28 06:26:53;;;;;;;9.63;7.47;;;;;;;6.61;100.00;99582.00;5067506;28;20049;-55
2022/09/28 06:29:19;;;;;;;10.85;7.53;;;;;;;6.62;100.00;99582.84;5067025;28;20051;-56
2022/09/28 06:31:46;;;;;;;11.73;7.97;;;;;;;6.62;100.00;99580.19;5064749;28;20094;-55
2022/09/28 06:34:11;;;;;;;12.02;8.18;;;;;;;6.60;100.00;99582.97;5064545;28;20021;-56
2022/09/28 06:36:38;;;;;;;11.57;8.18;;;;;;;6.62;100.00;99586.31;5065920;28;20039;-55
2022/09/28 06:39:03;;;;;;;11.20;8.50;;;;;;;6.63;100.00;99589.81;5065546;28;20028;-55
2022/09/28 06:41:29;;;;;;;10.52;8.63;;;;;;;6.63;100.00;99595.09;5066915;28;20291;-55
2022/09/28 06:43:55;;;;;;;13.10;8.48;;;;;;;6.63;100.00;99593.28;5064448;28;20051;-56
2022/09/28 06:46:20;;;;;;;12.00;9.88;;;;;;;6.65;100.00;99598.44;5066623;28;20478;-55
2022/09/28 06:48:46;;;;;;;13.60;10.50;;;;;;;6.66;100.00;99600.94;5067225;28;20044;-55
2022/09/28 06:51:11;;;;;;;11.88;9.55;;;;;;;6.66;100.00;99598.31;5066345;28;20039;-56
2022/09/28 06:53:36;;;;;;;13.02;9.55;;;;;;;6.70;100.00;99596.25;5065388;28;20060;-55
2022/09/28 06:56:02;;;;;;;12.02;10.18;;;;;;;6.72;100.00;99596.97;5066246;28;20375;-55
2022/09/28 06:58:27;;;;;;;13.98;9.80;;;;;;;6.77;100.00;99599.25;5067673;28;20076;-55
2022/09/28 07:00:58;;;;;;;14.60;10.60;;;;;;;6.81;100.00;99600.66;5064584;28;20024;-53
2022/09/28 07:03:23;;;;;;;15.23;10.65;;;;;;;6.86;100.00;99601.13;5068686;28;20059;-55
2022/09/28 07:05:51;;;;;;;12.70;9.90;;;;;;;6.90;100.00;99605.19;5068016;28;20040;-55
2022/09/28 07:08:17;;;;;;;11.90;10.63;;;;;;;6.97;100.00;99611.66;5064002;28;20047;-56
2022/09/28 07:10:47;;;;;;;12.57;10.57;;;;;;;7.03;100.00;99618.25;5066691;28;20028;-56
2022/09/28 07:13:14;;;;;;;17.42;11.45;;;;;;;7.12;100.00;99609.56;5064077;28;20432;-55
2022/09/28 07:15:39;;;;;;;13.98;10.43;;;;;;;7.16;100.00;99610.13;5065153;28;20517;-56
2022/09/28 07:18:06;;;;;;;15.90;9.90;;;;;;;7.21;100.00;99619.38;5065269;28;20102;-55
2022/09/28 07:20:33;;;;;;;12.63;10.13;;;;;;;7.27;100.00;99619.84;5065217;28;20037;-56
2022/09/28 07:23:01;;;;;;;12.30;10.20;;;;;;;7.34;100.00;99624.47;5067560;28;20040;-55
2022/09/28 07:25:31;;;;;;;14.68;9.48;;;;;;;7.40;100.00;99620.50;5069217;28;20044;-55
2022/09/28 07:28:00;;;;;;;13.93;10.27;;;;;;;7.49;100.00;99622.34;5071325;28;20037;-56
2022/09/28 07:30:30;;;;;;;11.98;10.27;;;;;;;7.57;100.00;99622.56;5070003;28;20032;-56
2022/09/28 07:32:55;;;;;;;13.20;10.80;;;;;;;7.66;100.00;99623.63;5065743;28;20041;-55
2022/09/28 07:35:21;;;;;;;14.90;10.68;;;;;;;7.78;100.00;99622.56;5070856;28;20043;-56
2022/09/28 07:37:46;;;;;;;13.95;9.50;;;;;;;7.90;100.00;99623.31;5070477;28;20032;-56
2022/09/28 07:43:03;;;;;;;13.27;9.20;;;;;;;8.19;100.00;99629.75;5068890;28;20093;-54
2022/09/28 07:45:28;;;;;;;15.65;10.40;;;;;;;8.29;100.00;99618.25;5070702;28;20536;-53
2022/09/28 07:47:54;;;;;;;11.73;8.73;;;;;;;8.38;100.00;99629.81;5074607;28;20036;-54
2022/09/28 07:50:20;;;;;;;10.25;8.98;;;;;;;8.48;100.00;99628.09;5074453;28;20051;-51
2022/09/28 07:52:46;;;;;;;9.00;7.85;;;;;;;8.54;100.00;99626.69;5074305;28;20044;-54
2022/09/28 07:55:12;;;;;;;9.07;7.68;;;;;;;8.62;100.00;99634.81;5062104;28;20032;-52
2022/09/28 07:57:38;;;;;;;11.55;7.72;;;;;;;8.70;100.00;99634.13;5071846;28;20037;-51
2022/09/28 08:00:07;;;;;;;10.45;8.40;;;;;;;8.80;100.00;99636.81;5070875;28;20045;-50
2022/09/28 08:02:33;;;;;;;9.82;8.18;;;;;;;8.87;100.00;99637.94;5077188;28;20033;-52
2022/09/28 08:04:59;;;;;;;14.48;8.48;;;;;;;9.00;100.00;99635.03;5072454;28;20051;-52
2022/09/28 08:07:24;;;;;;;13.38;8.00;;;;;;;9.06;100.00;99634.50;5069973;28;20474;-49
2022/09/28 08:09:50;;;;;;;11.52;8.55;;;;;;;9.19;100.00;99635.06;5070980;28;20029;-51
2022/09/28 08:12:17;;;;;;;11.15;7.50;;;;;;;9.34;100.00;99640.78;5070953;28;20524;-53
2022/09/28 08:14:42;;;;;;;9.38;8.35;;;;;;;9.55;100.00;99642.44;5071845;28;20180;-53
2022/09/28 08:17:08;;;;;;;10.80;7.53;;;;;;;9.76;100.00;99637.81;5069990;28;20397;-50
2022/09/28 08:22:18;;;;;;;10.30;7.60;;;;;;;10.10;100.00;99647.09;5070675;28;20075;-51
2022/09/28 08:24:47;;;;;;;7.25;6.50;;;;;;;10.25;100.00;99648.31;5070555;28;20434;-52
2022/09/28 08:27:14;;;;;;;8.53;6.73;;;;;;;10.46;99.56;99652.59;5071717;28;20032;-53
2022/09/28 08:29:41;;;;;;;9.23;6.55;;;;;;;10.63;98.67;99651.00;5070950;28;20632;-51
2022/09/28 08:32:07;;;;;;;8.35;5.82;;;;;;;10.78;97.36;99654.00;5070273;28;20049;-54
2022/09/28 08:34:36;;;;;;;8.73;6.47;;;;;;;11.00;98.13;99656.22;5066499;28;20078;-53
2022/09/28 08:37:01;;;;;;;;;;;;;;;11.05;99.23;99653.13;5070881;28;20038;-52
2022/09/28 08:39:27;;;;;;;8.37;5.83;;;;;;;11.32;97.25;99662.84;5068434;28;19920;-53
2022/09/28 08:42:19;;;;;;;7.47;5.75;;;;;;;11.44;94.96;99663.47;5070473;28;20094;-54
2022/09/28 08:44:48;;;;;;;6.53;5.38;;;;;;;11.61;92.02;99664.47;5068167;28;20020;-52
2022/09/28 08:50:13;;;;;;;6.53;5.13;;;;;;;11.92;91.23;99664.88;5069739;28;20248;-49
2022/09/28 08:52:39;;;;;;;9.43;4.53;;;;;;;12.01;88.68;99663.97;5069927;28;20097;-51
2022/09/28 08:55:31;;;;;;;8.38;4.78;;;;;;;12.22;88.84;99665.41;5071016;28;20025;-56
2022/09/28 08:58:04;;;;;;;6.07;4.45;;;;;;;12.38;87.14;99670.00;5068652;28;20452;-52
2022/09/28 09:00:37;;;;;;;8.73;4.55;;;;;;;12.51;88.27;99666.94;5071751;28;20029;-55
2022/09/28 09:03:10;;;;;;;5.93;4.75;;;;;;;12.61;87.46;99680.94;5059353;28;20032;-51
2022/09/28 09:06:13;;;;;;;8.60;4.60;;;;;;;12.75;87.76;99676.84;5069979;28;20085;-54
2022/09/28 09:08:57;;;;;;;5.75;4.15;;;;;;;12.81;84.36;99684.19;5068534;28;20441;-53
2022/09/28 09:11:37;;;;;;;5.30;4.00;;;;;;;12.92;85.46;99686.56;5061024;28;20063;-55
2022/09/28 09:14:26;;;;;;;9.68;4.63;;;;;;;13.01;83.88;99682.09;5068523;28;20020;-54
2022/09/28 09:16:59;;;;;;;5.32;4.00;;;;;;;13.13;83.62;99694.13;5066040;28;20036;-56
2022/09/28 09:19:36;;;;;;;6.65;3.92;;;;;;;13.31;83.54;99687.84;5067501;28;20032;-56
2022/09/28 09:22:16;;;;;;;5.35;4.18;;;;;;;13.37;84.06;99694.38;5068150;28;20016;-55
2022/09/28 09:25:16;;;;;;;4.25;3.42;;;;;;;13.38;83.10;99696.88;5068135;28;20370;-54
2022/09/28 09:28:05;;;;;;;8.18;3.47;;;;;;;13.58;81.95;99702.75;5065733;28;20036;-53
2022/09/28 09:30:43;;;;;;;7.65;3.50;;;;;;;13.80;82.01;99695.09;5074634;28;20103;-54
2022/09/28 09:33:32;;;;;;;9.80;3.22;;;;;;;13.86;80.52;99697.91;5069795;28;20025;-54
2022/09/28 09:36:22;;;;;;;5.90;3.25;;;;;;;13.96;81.43;99697.75;5069911;28;20120;-55
2022/09/28 09:39:12;;;;;;;4.05;2.70;;;;;;;13.95;77.67;99705.94;5071332;28;20029;-55
2022/09/28 09:41:44;;;;;;;5.50;3.08;;;;;;;14.00;77.79;99708.94;5074111;28;20081;-55
2022/09/28 09:44:27;;;;;;;4.45;2.50;;;;;;;14.14;78.05;99710.94;5067711;28;20111;-55
2022/09/28 09:47:06;;;;;;;5.22;3.00;;;;;;;14.27;79.54;99709.56;5065729;28;20058;-55
2022/09/28 09:49:37;;;;;;;;;;;;;;;14.46;82.84;99703.03;5066907;28;20019;-55
2022/09/28 09:52:30;;;;;;;8.23;3.15;;;;;;;14.49;77.85;99711.53;5065558;28;19923;-54
2022/09/28 09:55:06;;;;;;;8.38;3.10;;;;;;;14.51;76.87;99706.84;5075076;28;20051;-57
2022/09/28 09:57:39;;;;;;;4.53;3.00;;;;;;;14.64;74.89;99710.84;5068529;28;20012;-56
2022/09/28 10:00:11;;;;;;;4.90;3.70;;;;;;;14.67;74.10;99708.69;5071554;28;20566;-56
2022/09/28 10:02:38;;;;;;;4.93;2.80;;;;;;;14.86;75.36;99707.44;5070877;28;20403;-56
2022/09/28 10:05:09;;;;;;;5.68;2.40;;;;;;;15.03;74.52;99707.38;5064923;28;20040;-56
2022/09/28 10:07:53;;;;;;;3.60;2.50;;;;;;;15.08;72.92;99702.31;5066423;28;20359;-55
2022/09/28 10:10:28;;;;;;;3.78;2.70;;;;;;;15.11;73.49;99710.00;5065606;28;20067;-56
2022/09/28 10:12:55;;;;;;;6.43;2.80;;;;;;;15.21;71.61;99705.25;5068667;28;20510;-55
2022/09/28 10:15:32;;;;;;;7.45;2.75;;;;;;;15.22;73.46;99712.28;5068410;28;20063;-57
2022/09/28 10:18:02;;;;;;;7.95;2.70;;;;;;;15.24;71.74;99698.72;5067517;28;20043;-56
2022/09/28 10:20:32;;;;;;;7.35;2.70;;;;;;;15.32;70.95;99712.91;5064211;28;20033;-56
2022/09/28 10:23:00;;;;;;;4.00;2.20;;;;;;;15.42;69.87;99704.66;5063875;28;20047;-55
2022/09/28 10:25:28;;;;;;;4.28;2.65;;;;;;;15.53;71.71;99698.88;5065558;28;20107;-56
2022/09/28 10:27:55;;;;;;;8.65;2.33;;;;;;;15.47;71.57;99702.28;5066188;28;20028;-56
2022/09/28 10:30:24;;;;;;;4.53;2.50;;;;;;;15.44;70.13;99707.97;5068301;28;20060;-56
2022/09/28 10:32:53;;;;;;;6.65;2.45;;;;;;;15.39;69.00;99699.66;5064566;28;20382;-56
2022/09/28 10:35:24;;;;;;;4.65;2.80;;;;;;;15.34;70.49;99702.84;5068822;28;20035;-56
2022/09/28 10:37:58;;;;;;;3.17;2.30;;;;;;;15.35;70.65;99698.31;5065251;28;20043;-56
2022/09/28 10:40:37;;;;;;;5.57;2.35;;;;;;;15.25;68.86;99697.72;5065855;28;20032;-56
2022/09/28 10:43:07;;;;;;;4.82;3.30;;;;;;;15.13;68.07;99705.31;5066294;28;20529;-57
2022/09/28 10:45:36;;;;;;;6.95;2.95;;;;;;;15.04;70.74;99706.34;5066209;28;20498;-56
2022/09/28 10:48:12;;;;;;;5.03;2.78;;;;;;;15.03;71.94;99702.03;5065954;28;20035;-56
2022/09/28 10:50:39;;;;;;;3.92;2.75;;;;;;;15.04;69.61;99703.66;5064848;28;20064;-54
2022/09/28 10:53:18;;;;;;;5.38;2.60;;;;;;;15.22;72.08;99700.75;5066454;28;20658;-56
2022/09/28 10:55:56;;;;;;;5.65;2.20;;;;;;;15.39;70.30;99705.00;5065842;28;20020;-55
2022/09/28 10:58:30;;;;;;;6.47;2.93;;;;;;;15.53;69.09;99706.88;5069636;28;20371;-56
2022/09/28 11:01:02;;;;;;;6.50;2.63;;;;;;;15.63;68.62;99698.63;5069155;28;20040;-55
2022/09/28 11:03:29;;;;;;;6.25;2.78;;;;;;;15.59;67.77;99697.34;5068006;28;20032;-56
2022/09/28 11:05:59;;;;;;;5.43;2.50;;;;;;;15.82;70.05;99696.50;5071281;28;20119;-55
2022/09/28 11:08:37;;;;;;;5.75;2.10;;;;;;;15.94;69.22;99687.06;5067497;28;20070;-56
2022/09/28 11:11:14;;;;;;;3.30;2.00;;;;;;;16.04;66.82;99686.81;5067998;28;20154;-54
2022/09/28 11:13:52;;;;;;;3.47;1.80;;;;;;;16.25;69.79;99697.66;5071607;28;20071;-56
2022/09/28 11:16:30;;;;;;;4.50;1.80;;;;;;;16.37;67.37;99692.66;5063914;28;20086;-56
2022/09/28 11:19:01;;;;;;;3.92;1.90;;;;;;;16.45;67.60;99697.09;5072248;28;20279;-56
2022/09/28 11:21:33;;;;;;;6.18;1.60;;;;;;;16.37;65.46;99689.97;5070996;28;20063;-57
2022/09/28 11:24:09;;;;;;;4.38;1.70;;;;;;;16.26;67.67;99693.94;5073313;28;20075;-56
2022/09/28 11:26:46;;;;;;;6.65;1.77;;;;;;;16.16;65.82;99693.38;5068388;28;20032;-55
2022/09/28 11:29:43;;;;;;;3.63;1.60;;;;;;;16.08;67.17;99693.44;5064514;28;20303;-56
2022/09/28 11:32:09;;;;;;;3.15;1.38;;;;;;;15.89;65.72;99698.28;5071414;28;20037;-54
2022/09/28 11:34:47;;;;;;;3.47;1.67;;;;;;;15.89;66.68;99697.47;5072639;28;20027;-55
2022/09/28 11:37:43;;;;;;;3.45;1.92;;;;;;;15.69;67.18;99700.59;5071483;28;20017;-55
2022/09/28 11:40:18;;;;;;;3.10;1.80;;;;;;;15.58;68.55;99702.88;5064879;28;20033;-55
2022/09/28 11:43:20;;;;;;;5.43;2.20;;;;;;;15.71;68.05;99695.88;5072544;28;20042;-56
2022/09/28 11:46:16;;;;;;;5.80;2.80;;;;;;;15.83;68.67;99699.00;5071956;28;20032;-56
2022/09/28 11:48:48;;;;;;;4.13;2.65;;;;;;;15.81;66.37;99698.38;5068201;28;20272;-55
2022/09/28 11:51:26;;;;;;;4.47;2.38;;;;;;;15.79;66.52;99696.91;5071838;28;20052;-55
2022/09/28 11:53:56;;;;;;;2.83;2.05;;;;;;;15.69;67.01;99694.41;5069338;28;20047;-56
2022/09/28 11:56:31;;;;;;;4.10;2.50;;;;;;;15.64;67.51;99694.13;5072334;28;20111;-54
2022/09/28 11:59:06;;;;;;;5.70;2.60;;;;;;;15.57;67.69;99701.19;5069890;28;20177;-56
2022/09/28 12:01:48;;;;;;;5.65;2.42;;;;;;;15.57;67.02;99695.84;5067856;28;20032;-56
2022/09/28 12:04:22;;;;;;;4.60;2.10;;;;;;;15.58;66.97;99698.34;5084426;28;20127;-55